Time;durP1;ratioP1;P1;durP2;ratioP2;P2;SDS_P1;SDS_P2;PMS_P1;PMS_P2;Temp;Humidity;BMP_temperature;BMP_pressure;BME280_temperature;BME280_humidity;BME280_pressure;Samples;Min_cycle;Max_cycle;Signal;HPM_P1;HPM_P2
2023/05/12 00:02:12;;;;;;;1.67;1.27;;;12.90;99.90;;;;;;5012347;28;20053;-84
2023/05/12 00:04:39;;;;;;;3.15;0.90;;;12.90;99.90;;;;;;5012812;28;20054;-83
2023/05/12 00:07:06;;;;;;;3.78;1.30;;;12.90;99.90;;;;;;5007435;28;20062;-83
2023/05/12 00:09:33;;;;;;;1.63;1.10;;;12.90;99.90;;;;;;5007864;28;20153;-83
2023/05/12 00:12:01;;;;;;;6.20;1.40;;;12.90;99.90;;;;;;5015399;28;20141;-83
2023/05/12 00:14:27;;;;;;;2.15;0.93;;;12.90;99.90;;;;;;5006883;28;20109;-83
2023/05/12 00:16:54;;;;;;;1.52;0.70;;;12.90;99.90;;;;;;5010771;28;20400;-82
2023/05/12 00:19:21;;;;;;;1.85;0.93;;;12.90;99.90;;;;;;5012018;28;20096;-84
2023/05/12 00:21:47;;;;;;;2.80;1.00;;;12.90;99.90;;;;;;5014818;28;20133;-81
2023/05/12 00:24:14;;;;;;;1.85;1.17;;;12.90;99.90;;;;;;5011597;28;20084;-83
2023/05/12 00:26:41;;;;;;;1.40;0.98;;;12.90;99.90;;;;;;5017401;28;20145;-83
2023/05/12 00:29:08;;;;;;;2.90;1.00;;;12.90;99.90;;;;;;5009740;28;20054;-83
2023/05/12 00:31:35;;;;;;;1.70;1.48;;;12.90;99.90;;;;;;5014327;28;20053;-81
2023/05/12 00:34:01;;;;;;;0.93;0.73;;;12.90;99.90;;;;;;5004827;28;20054;-84
2023/05/12 00:36:28;;;;;;;3.42;1.00;;;12.90;99.90;;;;;;5011158;28;20078;-83
2023/05/12 00:38:55;;;;;;;1.33;1.20;;;12.90;99.90;;;;;;5005692;28;20502;-82
2023/05/12 00:41:22;;;;;;;3.33;1.10;;;12.90;99.90;;;;;;5010161;28;20129;-83
2023/05/12 00:43:49;;;;;;;1.98;1.30;;;13.00;99.90;;;;;;5013708;28;20108;-83
2023/05/12 00:46:16;;;;;;;2.35;1.40;;;13.00;99.90;;;;;;5008337;28;20141;-83
2023/05/12 00:48:44;;;;;;;1.15;0.90;;;13.00;99.90;;;;;;5009655;28;20148;-82
2023/05/12 00:51:12;;;;;;;1.45;0.80;;;13.00;99.90;;;;;;5005294;28;20414;-80
2023/05/12 00:53:40;;;;;;;1.25;0.90;;;13.10;99.90;;;;;;5001591;28;20077;-81
2023/05/12 00:56:19;;;;;;;2.47;1.02;;;13.10;99.90;;;;;;5008157;28;20076;-83
2023/05/12 00:58:46;;;;;;;1.48;0.93;;;13.10;99.90;;;;;;5006250;28;20178;-83
2023/05/12 01:01:13;;;;;;;5.13;1.30;;;13.10;99.90;;;;;;5008361;28;20127;-82
2023/05/12 01:03:40;;;;;;;2.90;0.80;;;13.10;99.90;;;;;;5008280;28;20045;-81
2023/05/12 01:06:28;;;;;;;1.08;0.98;;;13.10;99.90;;;;;;5008428;28;20588;-84
2023/05/12 01:08:56;;;;;;;2.63;1.13;;;13.20;99.90;;;;;;5011288;28;20058;-83
2023/05/12 01:11:23;;;;;;;2.47;1.05;;;13.20;99.90;;;;;;5016067;28;20141;-85
2023/05/12 01:13:50;;;;;;;1.10;0.98;;;13.20;99.90;;;;;;5005646;28;20080;-81
2023/05/12 01:16:21;;;;;;;7.45;1.30;;;13.20;99.90;;;;;;5005219;28;20509;-82
2023/05/12 01:18:52;;;;;;;1.45;1.13;;;13.20;99.90;;;;;;5013355;28;20058;-82
2023/05/12 01:21:19;;;;;;;;;;;13.20;99.90;;;;;;5010570;28;20060;-82
2023/05/12 01:23:52;;;;;;;2.70;1.35;;;13.20;99.90;;;;;;5011611;28;20390;-83
2023/05/12 01:26:19;;;;;;;3.65;1.30;;;13.20;99.90;;;;;;5010266;28;20054;-83
2023/05/12 01:28:46;;;;;;;2.38;1.45;;;13.20;99.90;;;;;;5015529;28;20054;-83
2023/05/12 01:31:14;;;;;;;1.58;1.10;;;13.20;99.90;;;;;;5014244;28;20073;-82
2023/05/12 01:33:41;;;;;;;1.60;1.17;;;13.30;99.90;;;;;;5020392;28;20597;-81
2023/05/12 01:36:08;;;;;;;1.83;1.23;;;13.20;99.90;;;;;;5017334;28;20046;-86
2023/05/12 01:38:34;;;;;;;3.63;1.10;;;13.30;99.90;;;;;;5016257;28;20081;-82
2023/05/12 01:41:01;;;;;;;1.13;0.95;;;13.30;99.90;;;;;;5011967;28;20054;-83
2023/05/12 01:43:28;;;;;;;1.70;1.15;;;13.30;99.90;;;;;;5006993;28;20145;-84
2023/05/12 01:45:55;;;;;;;3.13;1.00;;;13.30;99.90;;;;;;5013319;28;20058;-84
2023/05/12 01:48:21;;;;;;;3.28;1.05;;;13.30;99.90;;;;;;5018162;28;20050;-83
2023/05/12 01:50:48;;;;;;;1.88;1.15;;;13.30;99.90;;;;;;5011882;28;20054;-84
2023/05/12 01:53:15;;;;;;;6.90;1.30;;;13.30;99.90;;;;;;5010769;28;20051;-83
2023/05/12 01:55:41;;;;;;;3.47;1.45;;;13.30;99.90;;;;;;5005780;28;20480;-83
2023/05/12 01:58:08;;;;;;;3.67;1.20;;;13.30;99.90;;;;;;5009143;28;20137;-83
2023/05/12 02:00:35;;;;;;;1.83;1.25;;;13.30;99.90;;;;;;5010172;28;20042;-83
2023/05/12 02:03:02;;;;;;;3.33;1.60;;;13.30;99.90;;;;;;5011415;28;20042;-83
2023/05/12 02:05:29;;;;;;;4.70;1.55;;;13.30;99.90;;;;;;5007174;28;20050;-85
2023/05/12 02:07:55;;;;;;;4.22;1.40;;;13.30;99.90;;;;;;5009540;28;20050;-80
2023/05/12 02:10:22;;;;;;;1.58;1.35;;;13.30;99.90;;;;;;5009260;28;20046;-82
2023/05/12 02:12:49;;;;;;;2.05;1.40;;;13.30;99.90;;;;;;5011974;28;20070;-82
2023/05/12 02:15:16;;;;;;;1.58;1.33;;;13.30;99.90;;;;;;5004641;28;20045;-83
2023/05/12 02:17:42;;;;;;;2.50;1.40;;;13.30;99.90;;;;;;5007210;28;20132;-83
2023/05/12 02:20:11;;;;;;;3.47;1.40;;;13.30;99.90;;;;;;5007624;28;20655;-81
2023/05/12 02:22:38;;;;;;;1.67;1.40;;;13.30;99.90;;;;;;4997370;28;20285;-83
2023/05/12 02:25:05;;;;;;;3.55;1.73;;;13.40;99.90;;;;;;5004941;28;20502;-82
2023/05/12 02:27:32;;;;;;;3.97;1.75;;;13.30;99.90;;;;;;5009423;28;20117;-82
2023/05/12 02:29:58;;;;;;;3.30;1.67;;;13.40;99.90;;;;;;5006662;28;20482;-83
2023/05/12 02:32:27;;;;;;;4.10;1.30;;;13.40;99.90;;;;;;5004923;28;20042;-82
2023/05/12 02:34:55;;;;;;;7.30;1.70;;;13.40;99.90;;;;;;5006780;28;20125;-81
2023/05/12 02:37:22;;;;;;;3.28;1.90;;;13.40;99.90;;;;;;4997691;28;20066;-83
2023/05/12 02:39:48;;;;;;;3.25;1.80;;;13.40;99.90;;;;;;5008347;28;20132;-84
2023/05/12 02:42:15;;;;;;;3.88;1.40;;;13.40;99.90;;;;;;5000002;28;20050;-83
2023/05/12 02:44:42;;;;;;;4.18;2.33;;;13.40;99.90;;;;;;5012926;28;20128;-81
2023/05/12 02:47:09;;;;;;;4.38;1.63;;;13.40;99.90;;;;;;5012483;28;20054;-84
2023/05/12 02:49:35;;;;;;;1.95;1.75;;;13.40;99.90;;;;;;5010148;28;20578;-83
2023/05/12 02:52:02;;;;;;;2.47;1.58;;;13.40;99.90;;;;;;4998839;28;20111;-81
2023/05/12 02:54:29;;;;;;;2.35;1.58;;;13.50;99.90;;;;;;5019612;28;20453;-83
2023/05/12 02:56:57;;;;;;;6.50;2.20;;;13.40;99.90;;;;;;5012520;28;20409;-81
2023/05/12 02:59:23;;;;;;;6.38;1.58;;;13.50;99.90;;;;;;5005563;28;20172;-83
2023/05/12 03:01:50;;;;;;;2.65;1.60;;;13.50;99.90;;;;;;5005096;28;20425;-81
2023/05/12 03:04:17;;;;;;;3.80;1.42;;;13.50;99.90;;;;;;5008836;28;20052;-81
2023/05/12 03:06:44;;;;;;;1.80;1.70;;;13.50;99.90;;;;;;4999386;28;20076;-82
2023/05/12 03:09:10;;;;;;;7.25;2.97;;;13.50;99.90;;;;;;5011284;28;20072;-83
2023/05/12 03:11:37;;;;;;;7.60;3.60;;;13.50;99.90;;;;;;5015762;28;20338;-82
2023/05/12 03:14:04;;;;;;;6.35;3.15;;;13.50;99.90;;;;;;5006599;28;20052;-83
2023/05/12 03:16:31;;;;;;;6.18;2.47;;;13.50;99.90;;;;;;5016742;28;20144;-83
2023/05/12 03:18:57;;;;;;;4.70;2.30;;;13.50;99.90;;;;;;5009316;28;20065;-85
2023/05/12 03:21:24;;;;;;;2.17;1.98;;;13.50;99.90;;;;;;5006098;28;20133;-83
2023/05/12 03:23:51;;;;;;;6.15;2.13;;;13.50;99.90;;;;;;5016744;28;20046;-83
2023/05/12 03:26:18;;;;;;;3.80;2.38;;;13.50;99.90;;;;;;5015058;28;20112;-85
2023/05/12 03:28:45;;;;;;;6.55;2.70;;;13.50;99.90;;;;;;5016280;28;20065;-83
2023/05/12 03:31:11;;;;;;;3.90;2.88;;;13.60;99.90;;;;;;5013298;28;20125;-84
2023/05/12 03:33:38;;;;;;;5.25;3.00;;;13.60;99.90;;;;;;5013275;28;20153;-83
2023/05/12 03:36:05;;;;;;;8.75;3.35;;;13.50;99.90;;;;;;5014623;28;20050;-83
2023/05/12 03:38:32;;;;;;;5.47;3.65;;;13.50;99.90;;;;;;5003539;28;20042;-83
2023/05/12 03:41:05;;;;;;;5.70;4.18;;;13.60;99.90;;;;;;5013048;28;20105;-84
2023/05/12 03:43:33;;;;;;;6.50;4.15;;;13.50;99.90;;;;;;5011672;28;20437;-84
2023/05/12 03:45:59;;;;;;;5.03;3.90;;;13.60;99.90;;;;;;5014525;28;20220;-83
2023/05/12 03:48:26;;;;;;;8.02;3.40;;;13.60;99.90;;;;;;5017359;28;20104;-83
2023/05/12 03:50:53;;;;;;;7.13;3.17;;;13.60;99.90;;;;;;5015256;28;20048;-84
2023/05/12 03:53:20;;;;;;;6.68;2.85;;;13.60;99.90;;;;;;5003293;28;20074;-82
2023/05/12 03:55:47;;;;;;;8.50;4.60;;;13.60;99.90;;;;;;5013330;28;20054;-83
2023/05/12 03:58:14;;;;;;;6.20;4.13;;;13.60;99.90;;;;;;5006758;28;20466;-83
2023/05/12 04:00:41;;;;;;;8.73;4.43;;;13.60;99.90;;;;;;5015825;28;20088;-83
2023/05/12 04:03:08;;;;;;;10.13;4.35;;;13.60;99.90;;;;;;5012653;28;20046;-83
2023/05/12 04:05:38;;;;;;;9.98;4.95;;;13.60;99.90;;;;;;5008450;28;20133;-83
2023/05/12 04:08:05;;;;;;;9.18;5.15;;;13.60;99.90;;;;;;5004970;28;20046;-81
2023/05/12 04:10:39;;;;;;;7.72;5.20;;;13.60;99.90;;;;;;5018764;28;20080;-83
2023/05/12 04:13:06;;;;;;;6.25;4.88;;;13.60;99.90;;;;;;5016417;28;20066;-82
2023/05/12 04:15:34;;;;;;;6.85;4.68;;;13.50;99.90;;;;;;5015722;28;20050;-81
2023/05/12 04:18:02;;;;;;;7.65;5.05;;;13.50;99.90;;;;;;5013819;28;20563;-82
2023/05/12 04:20:29;;;;;;;7.88;5.15;;;13.50;99.90;;;;;;5009505;28;20078;-83
2023/05/12 04:22:56;;;;;;;9.20;5.55;;;13.50;99.90;;;;;;5015271;28;20046;-83
2023/05/12 04:25:23;;;;;;;6.65;4.70;;;13.60;99.90;;;;;;5013356;28;20049;-79
2023/05/12 04:27:49;;;;;;;7.75;5.40;;;13.50;99.90;;;;;;5005355;28;20077;-80
2023/05/12 04:30:16;;;;;;;9.35;5.07;;;13.50;99.90;;;;;;5008556;28;20055;-82
2023/05/12 04:32:43;;;;;;;9.35;5.72;;;13.50;99.90;;;;;;5009274;28;20054;-81
2023/05/12 04:35:10;;;;;;;9.25;5.55;;;13.50;99.90;;;;;;5006843;28;20054;-80
2023/05/12 04:37:37;;;;;;;11.18;6.05;;;13.50;99.90;;;;;;5008403;28;20128;-84
2023/05/12 04:40:06;;;;;;;6.78;4.40;;;13.50;99.90;;;;;;5028258;23;20439;-77
2023/05/12 04:42:33;;;;;;;8.05;4.88;;;13.50;99.90;;;;;;5015222;28;20046;-77
2023/05/12 04:44:59;;;;;;;7.13;5.10;;;13.50;99.90;;;;;;4999186;28;20050;-76
2023/05/12 04:47:27;;;;;;;8.30;5.45;;;13.50;99.90;;;;;;4997667;28;20050;-75
2023/05/12 04:49:54;;;;;;;6.90;4.93;;;13.50;99.90;;;;;;4994401;28;20434;-75
2023/05/12 04:52:21;;;;;;;7.85;5.07;;;13.50;99.90;;;;;;5006149;28;20046;-75
2023/05/12 04:54:50;;;;;;;9.90;5.70;;;13.50;99.90;;;;;;5020661;28;20050;-76
2023/05/12 04:57:17;;;;;;;7.53;6.20;;;13.50;99.90;;;;;;5002366;28;20042;-76
2023/05/12 04:59:44;;;;;;;7.88;5.50;;;13.50;99.90;;;;;;5002655;28;20469;-75
2023/05/12 05:02:11;;;;;;;8.05;5.80;;;13.50;99.90;;;;;;4996963;28;20050;-76
2023/05/12 05:04:38;;;;;;;13.50;9.77;;;13.50;99.90;;;;;;4995430;28;20050;-76
2023/05/12 05:07:05;;;;;;;12.40;7.78;;;13.50;99.90;;;;;;5018812;28;20076;-77
2023/05/12 05:09:32;;;;;;;9.77;7.43;;;13.50;99.90;;;;;;5004061;28;20052;-76
2023/05/12 05:12:01;;;;;;;7.90;5.82;;;13.50;99.90;;;;;;5017576;28;20086;-76
2023/05/12 05:14:28;;;;;;;7.57;5.32;;;13.50;99.90;;;;;;5001701;28;20045;-76
2023/05/12 05:16:55;;;;;;;8.77;5.82;;;13.50;99.90;;;;;;5013467;28;20042;-75
2023/05/12 05:19:21;;;;;;;6.45;5.30;;;13.50;99.90;;;;;;4994369;28;20042;-76
2023/05/12 05:22:08;;;;;;;7.53;5.38;;;13.60;99.90;;;;;;5002652;28;20049;-75
2023/05/12 05:24:35;;;;;;;8.93;5.78;;;13.60;99.90;;;;;;5004419;28;20042;-76
2023/05/12 05:27:01;;;;;;;8.90;5.68;;;13.60;99.90;;;;;;5017583;28;20050;-76
2023/05/12 05:29:28;;;;;;;7.60;5.50;;;13.70;99.90;;;;;;5000501;28;20409;-75
2023/05/12 05:31:55;;;;;;;7.75;5.25;;;13.70;99.90;;;;;;5012604;28;20050;-76
2023/05/12 05:34:21;;;;;;;7.68;5.03;;;13.70;99.90;;;;;;4988511;28;20117;-75
2023/05/12 05:36:48;;;;;;;10.32;5.63;;;13.80;99.90;;;;;;4997259;28;20055;-76
2023/05/12 05:39:15;;;;;;;8.98;6.00;;;13.80;99.90;;;;;;4988393;28;20113;-76
2023/05/12 05:41:42;;;;;;;8.45;6.47;;;13.80;99.90;;;;;;4997503;28;20049;-75
2023/05/12 05:44:08;;;;;;;8.00;5.85;;;13.90;99.90;;;;;;4999010;28;20410;-75
2023/05/12 05:46:35;;;;;;;7.75;5.70;;;13.90;99.90;;;;;;4997413;28;20521;-76
2023/05/12 05:49:02;;;;;;;7.28;5.38;;;13.90;99.90;;;;;;4991181;28;20173;-76
2023/05/12 05:51:28;;;;;;;5.55;4.95;;;14.00;99.90;;;;;;4986962;28;20061;-75
2023/05/12 05:53:55;;;;;;;6.10;5.50;;;14.00;99.90;;;;;;5011869;28;20050;-76
2023/05/12 05:56:22;;;;;;;8.55;6.40;;;14.00;99.90;;;;;;5005518;28;20129;-76
2023/05/12 05:58:48;;;;;;;7.97;6.30;;;14.10;99.90;;;;;;5006253;28;20057;-75
2023/05/12 06:01:15;;;;;;;8.43;4.32;;;14.10;99.90;;;;;;4994603;28;20049;-75
2023/05/12 06:03:42;;;;;;;8.20;4.90;;;14.10;99.90;;;;;;4990921;28;20056;-75
2023/05/12 06:06:09;;;;;;;7.65;5.32;;;14.10;99.90;;;;;;4995199;28;20054;-76
2023/05/12 06:08:36;;;;;;;5.75;4.10;;;14.10;99.90;;;;;;4995492;28;20050;-76
2023/05/12 06:11:03;;;;;;;5.65;4.55;;;14.10;99.90;;;;;;4993829;28;20048;-76
2023/05/12 06:13:30;;;;;;;9.57;4.90;;;14.10;99.90;;;;;;4993649;28;20420;-76
2023/05/12 06:15:56;;;;;;;6.18;4.32;;;14.20;99.90;;;;;;4991607;28;20050;-76
2023/05/12 06:18:23;;;;;;;9.45;5.40;;;14.20;99.90;;;;;;4986838;28;20046;-77
2023/05/12 06:20:50;;;;;;;7.80;5.60;;;14.20;99.90;;;;;;4992945;28;20046;-76
2023/05/12 06:23:17;;;;;;;10.13;4.63;;;14.20;99.90;;;;;;5004137;28;20125;-76
2023/05/12 06:25:43;;;;;;;7.20;5.10;;;14.20;99.90;;;;;;4994004;28;20050;-76
2023/05/12 06:28:10;;;;;;;5.80;4.63;;;14.20;99.90;;;;;;4998034;28;20050;-77
2023/05/12 06:30:38;;;;;;;6.47;5.38;;;14.20;99.90;;;;;;4991590;28;20429;-76
2023/05/12 06:33:04;;;;;;;8.43;5.75;;;14.20;99.90;;;;;;4988351;28;20046;-78
2023/05/12 06:35:31;;;;;;;8.52;5.82;;;14.30;99.90;;;;;;4992209;28;20058;-78
2023/05/12 06:37:58;;;;;;;7.97;5.70;;;14.30;99.90;;;;;;5002697;28;20043;-76
2023/05/12 06:40:25;;;;;;;7.25;6.22;;;14.30;99.90;;;;;;4996378;28;20045;-75
2023/05/12 06:42:51;;;;;;;9.32;6.22;;;14.30;99.90;;;;;;4997935;28;20522;-75
2023/05/12 06:45:18;;;;;;;8.85;5.85;;;14.30;99.90;;;;;;4996897;28;20049;-76
2023/05/12 06:47:45;;;;;;;9.73;5.70;;;14.30;99.90;;;;;;4994802;28;20408;-75
2023/05/12 06:50:14;;;;;;;8.65;6.03;;;14.30;99.90;;;;;;4988736;28;20117;-76
2023/05/12 06:52:41;;;;;;;9.10;6.40;;;14.40;99.90;;;;;;5000247;28;20050;-76
2023/05/12 06:55:08;;;;;;;7.10;6.35;;;14.40;99.90;;;;;;4998817;28;20044;-75
2023/05/12 06:57:35;;;;;;;8.18;6.15;;;14.40;99.90;;;;;;4999131;28;20050;-78
2023/05/12 07:00:03;;;;;;;6.78;5.85;;;14.40;99.90;;;;;;4997983;28;20046;-76
2023/05/12 07:02:30;;;;;;;8.25;5.90;;;14.50;99.90;;;;;;4995321;28;20038;-76
2023/05/12 07:04:57;;;;;;;8.27;6.28;;;14.50;99.90;;;;;;4997716;28;20042;-76
2023/05/12 07:07:23;;;;;;;8.30;6.28;;;14.50;99.90;;;;;;5009579;28;20046;-76
2023/05/12 07:09:50;;;;;;;7.25;6.00;;;14.60;99.90;;;;;;4997879;28;20163;-76
2023/05/12 07:12:17;;;;;;;9.30;6.72;;;14.60;99.90;;;;;;5002401;28;20053;-76
2023/05/12 07:14:44;;;;;;;9.95;7.00;;;14.60;99.90;;;;;;4997027;28;20133;-76
2023/05/12 07:17:10;;;;;;;8.05;6.22;;;14.60;99.90;;;;;;4995243;28;20046;-76
2023/05/12 07:19:38;;;;;;;8.75;6.68;;;14.60;99.90;;;;;;4991845;28;20058;-75
2023/05/12 07:22:05;;;;;;;13.43;7.97;;;14.60;99.90;;;;;;5021622;28;20042;-76
2023/05/12 07:24:32;;;;;;;12.52;7.70;;;14.70;99.90;;;;;;4995528;28;20035;-75
2023/05/12 07:26:59;;;;;;;12.32;8.60;;;14.60;99.90;;;;;;4993291;28;20505;-76
2023/05/12 07:29:25;;;;;;;8.98;8.05;;;14.60;99.90;;;;;;4999663;28;20056;-76
2023/05/12 07:31:52;;;;;;;14.38;8.55;;;14.60;99.90;;;;;;4998044;28;20076;-77
2023/05/12 07:34:20;;;;;;;11.43;8.52;;;14.50;99.90;;;;;;4999767;28;20166;-75
2023/05/12 07:36:46;;;;;;;11.15;8.38;;;14.50;99.90;;;;;;5008750;28;20053;-78
2023/05/12 07:39:17;;;;;;;15.68;8.98;;;14.50;99.90;;;;;;5006159;28;20038;-78
2023/05/12 07:41:44;;;;;;;11.45;8.13;;;14.60;99.90;;;;;;5001938;28;20050;-77
2023/05/12 07:44:11;;;;;;;13.05;8.30;;;14.60;99.90;;;;;;5002518;28;20502;-76
2023/05/12 07:46:38;;;;;;;12.27;8.50;;;14.60;99.90;;;;;;4999165;28;20074;-76
2023/05/12 07:49:06;;;;;;;10.68;8.23;;;14.70;99.90;;;;;;4995997;28;20149;-75
2023/05/12 07:51:32;;;;;;;13.73;6.90;;;14.70;99.90;;;;;;5007690;28;20057;-75
2023/05/12 07:54:00;;;;;;;11.57;8.18;;;14.80;99.90;;;;;;5003611;28;20061;-76
2023/05/12 07:56:27;;;;;;;12.50;9.45;;;14.80;99.90;;;;;;4997804;28;20046;-76
2023/05/12 07:58:53;;;;;;;11.95;8.63;;;14.80;99.90;;;;;;5001106;28;20050;-76
2023/05/12 08:01:20;;;;;;;11.18;8.13;;;14.90;99.90;;;;;;4998821;28;20509;-76
2023/05/12 08:03:47;;;;;;;11.75;9.25;;;15.00;99.90;;;;;;4994669;28;20078;-76
2023/05/12 08:06:14;;;;;;;12.48;9.90;;;15.00;99.90;;;;;;5025229;28;20505;-78
2023/05/12 08:08:41;;;;;;;12.65;9.68;;;15.10;99.90;;;;;;5007884;28;20149;-75
2023/05/12 08:11:07;;;;;;;17.55;11.00;;;15.10;99.90;;;;;;5017796;28;20048;-76
2023/05/12 08:13:36;;;;;;;16.85;11.32;;;15.20;99.90;;;;;;5002300;28;20513;-76
2023/05/12 08:16:03;;;;;;;14.10;9.98;;;15.20;99.90;;;;;;4996560;28;20046;-76
2023/05/12 08:18:30;;;;;;;14.95;10.00;;;15.20;99.90;;;;;;4994191;28;20139;-76
2023/05/12 08:20:57;;;;;;;14.15;11.00;;;15.20;99.90;;;;;;5003040;28;20085;-76
2023/05/12 08:23:23;;;;;;;21.38;11.50;;;15.30;99.90;;;;;;4988582;28;20062;-76
2023/05/12 08:25:50;;;;;;;14.85;10.35;;;15.40;99.90;;;;;;4995300;28;20058;-76
2023/05/12 08:28:17;;;;;;;11.30;10.13;;;15.50;99.90;;;;;;4995640;28;20482;-76
2023/05/12 08:30:44;;;;;;;13.30;10.90;;;15.60;99.90;;;;;;4997826;28;20049;-76
2023/05/12 08:33:11;;;;;;;14.52;11.73;;;15.60;99.90;;;;;;4988647;28;20043;-76
2023/05/12 08:35:38;;;;;;;16.77;11.38;;;15.70;99.90;;;;;;4991915;28;20056;-75
2023/05/12 08:38:05;;;;;;;13.10;10.90;;;15.80;99.90;;;;;;5002441;28;20124;-76
2023/05/12 08:40:39;;;;;;;13.10;11.05;;;15.90;99.90;;;;;;5007486;28;20049;-75
2023/05/12 08:43:22;;;;;;;14.82;10.43;;;16.00;99.90;;;;;;4993089;28;20126;-76
2023/05/12 08:45:49;;;;;;;14.75;12.07;;;16.10;99.90;;;;;;4993387;28;20056;-76
2023/05/12 08:48:18;;;;;;;14.70;10.45;;;16.30;99.90;;;;;;4988230;28;20502;-76
2023/05/12 08:50:48;;;;;;;17.50;11.53;;;16.30;99.90;;;;;;4991804;28;20060;-76
2023/05/12 08:53:17;;;;;;;15.17;11.40;;;16.30;99.90;;;;;;4999085;28;20304;-76
2023/05/12 08:55:45;;;;;;;16.13;10.97;;;16.20;99.90;;;;;;4993928;28;20062;-76
2023/05/12 08:58:34;;;;;;;13.05;10.80;;;16.10;99.90;;;;;;4995593;28;20294;-76
2023/05/12 09:01:07;;;;;;;15.40;10.25;;;16.20;99.90;;;;;;4995093;28;20134;-76
2023/05/12 09:03:34;;;;;;;15.90;10.60;;;16.20;99.90;;;;;;4986031;28;20145;-76
2023/05/12 09:06:02;;;;;;;14.73;11.50;;;16.30;99.90;;;;;;5001754;28;20455;-76
2023/05/12 09:08:33;;;;;;;14.20;10.18;;;16.30;99.90;;;;;;4991033;28;20052;-76
2023/05/12 09:11:00;;;;;;;20.98;11.50;;;16.40;99.90;;;;;;4998932;28;20513;-76
2023/05/12 09:13:27;;;;;;;14.55;10.38;;;16.50;99.90;;;;;;4998752;28;20046;-76
2023/05/12 09:15:57;;;;;;;12.20;9.77;;;16.50;99.90;;;;;;4991933;28;20050;-76
2023/05/12 09:18:24;;;;;;;13.65;9.15;;;16.60;99.90;;;;;;4993511;28;20089;-76
2023/05/12 09:20:51;;;;;;;13.13;9.68;;;16.80;99.90;;;;;;4992093;28;20058;-76
2023/05/12 09:23:19;;;;;;;13.35;8.82;;;16.90;99.90;;;;;;4993914;28;20118;-75
2023/05/12 09:25:57;;;;;;;11.85;8.90;;;17.00;99.90;;;;;;4991062;28;20038;-75
2023/05/12 09:28:23;;;;;;;13.63;7.90;;;17.00;99.90;;;;;;5002753;28;20066;-76
2023/05/12 09:30:50;;;;;;;9.20;7.07;;;17.10;99.90;;;;;;4993306;28;20053;-76
2023/05/12 09:33:17;;;;;;;9.55;6.45;;;17.10;99.90;;;;;;4990148;28;20042;-76
2023/05/12 09:35:45;;;;;;;10.98;6.28;;;17.20;99.90;;;;;;4991955;28;20065;-75
2023/05/12 09:38:13;;;;;;;12.23;6.75;;;17.20;99.90;;;;;;4992368;28;20045;-75
2023/05/12 09:40:40;;;;;;;8.63;6.40;;;17.00;99.90;;;;;;4991689;28;20043;-76
2023/05/12 09:43:07;;;;;;;9.07;7.05;;;16.80;99.90;;;;;;5001166;28;20049;-76
2023/05/12 09:45:35;;;;;;;10.80;7.95;;;16.80;99.90;;;;;;4991996;28;20039;-76
2023/05/12 09:48:09;;;;;;;9.98;8.95;;;16.80;99.90;;;;;;4990780;28;20089;-76
2023/05/12 09:50:49;;;;;;;18.95;9.95;;;16.90;99.90;;;;;;4986550;28;20077;-76
2023/05/12 09:53:17;;;;;;;13.10;9.80;;;16.90;99.90;;;;;;4989753;28;20046;-76
2023/05/12 09:55:46;;;;;;;12.95;9.63;;;16.90;99.90;;;;;;4990515;28;20069;-76
2023/05/12 09:58:15;;;;;;;11.68;9.43;;;16.80;99.90;;;;;;4990470;28;20045;-74
2023/05/12 10:00:43;;;;;;;11.90;10.60;;;16.90;99.90;;;;;;4990847;28;20073;-76
2023/05/12 10:03:32;;;;;;;14.48;11.13;;;16.90;99.90;;;;;;4989687;28;20050;-76
2023/05/12 10:06:01;;;;;;;12.40;10.02;;;16.90;99.90;;;;;;4988774;28;20085;-76
2023/05/12 10:08:41;;;;;;;14.05;11.20;;;16.90;99.90;;;;;;4995376;28;20042;-76
2023/05/12 10:11:08;;;;;;;19.10;11.60;;;16.80;99.90;;;;;;4983908;28;20069;-76
2023/05/12 10:13:35;;;;;;;15.05;11.65;;;16.80;99.90;;;;;;4995393;28;20046;-76
2023/05/12 10:16:02;;;;;;;16.13;11.05;;;16.80;99.90;;;;;;4993492;28;20042;-76
2023/05/12 10:18:32;;;;;;;12.20;10.63;;;16.80;99.90;;;;;;4988310;28;20117;-76
2023/05/12 10:21:00;;;;;;;10.60;9.27;;;16.60;99.90;;;;;;5002489;28;20116;-77
2023/05/12 10:23:27;;;;;;;12.90;9.57;;;16.50;99.90;;;;;;4993946;28;20449;-76
2023/05/12 10:26:00;;;;;;;11.52;10.15;;;16.40;99.90;;;;;;4992979;28;20056;-76
2023/05/12 10:28:28;;;;;;;13.55;9.90;;;16.50;99.90;;;;;;4993353;28;20046;-76
2023/05/12 10:30:57;;;;;;;12.23;9.52;;;16.40;99.90;;;;;;4987975;28;20046;-76
2023/05/12 10:33:24;;;;;;;11.23;8.82;;;16.40;99.90;;;;;;4986220;28;20054;-76
2023/05/12 10:35:53;;;;;;;11.63;8.45;;;16.40;99.90;;;;;;4993960;28;20051;-76
2023/05/12 10:38:20;;;;;;;10.10;7.88;;;16.50;99.90;;;;;;4991936;28;20443;-76
2023/05/12 10:41:01;;;;;;;12.73;9.05;;;16.40;99.90;;;;;;4995726;28;20058;-77
2023/05/12 10:43:37;;;;;;;11.63;8.73;;;16.50;99.90;;;;;;4993902;28;20129;-75
2023/05/12 10:46:16;;;;;;;14.52;9.27;;;16.40;99.90;;;;;;4991363;28;20050;-77
2023/05/12 10:49:07;;;;;;;12.57;9.43;;;16.50;99.90;;;;;;4992961;28;20056;-75
2023/05/12 10:51:44;;;;;;;;;;;16.50;99.90;;;;;;4988668;28;20839;-76
2023/05/12 10:54:18;;;;;;;10.32;9.02;;;16.60;99.90;;;;;;4989995;28;19921;-76
2023/05/12 10:56:46;;;;;;;10.43;9.32;;;16.60;99.90;;;;;;4989916;28;20057;-76
2023/05/12 10:59:21;;;;;;;9.82;8.82;;;16.50;99.90;;;;;;4991671;28;20051;-76
2023/05/12 11:01:59;;;;;;;9.57;8.55;;;16.50;99.90;;;;;;4988937;28;20463;-76
2023/05/12 11:04:35;;;;;;;13.95;9.18;;;16.50;99.90;;;;;;4998562;28;20057;-76
2023/05/12 11:07:04;;;;;;;12.45;9.43;;;16.50;99.90;;;;;;5002230;28;20161;-75
2023/05/12 11:09:37;;;;;;;12.63;9.80;;;16.60;99.90;;;;;;4993908;28;20077;-76
2023/05/12 11:12:19;;;;;;;12.25;8.00;;;16.70;99.90;;;;;;4979925;28;20050;-75
2023/05/12 11:14:46;;;;;;;8.68;7.35;;;16.80;99.90;;;;;;4992083;28;20088;-76
2023/05/12 11:17:14;;;;;;;9.73;8.60;;;16.90;99.90;;;;;;4992009;28;20043;-77
2023/05/12 11:19:47;;;;;;;9.18;7.72;;;17.00;99.90;;;;;;5000850;28;20142;-76
2023/05/12 11:22:21;;;;;;;9.48;8.30;;;17.10;99.90;;;;;;5000850;28;20057;-75
2023/05/12 11:24:49;;;;;;;10.40;7.53;;;17.10;99.90;;;;;;4990912;28;20050;-76
2023/05/12 11:27:17;;;;;;;10.35;7.13;;;17.20;99.90;;;;;;4993306;28;20403;-79
2023/05/12 11:29:55;;;;;;;8.63;6.60;;;17.10;99.90;;;;;;4993780;28;20148;-76
2023/05/12 11:32:22;;;;;;;7.32;6.55;;;17.10;99.90;;;;;;4991162;28;20085;-75
2023/05/12 11:34:49;;;;;;;7.07;5.78;;;17.30;99.90;;;;;;5004705;28;20080;-76
2023/05/12 11:37:19;;;;;;;7.80;5.95;;;17.40;99.90;;;;;;4999547;28;20532;-76
2023/05/12 11:39:46;;;;;;;7.25;4.78;;;17.50;99.90;;;;;;4998557;28;20096;-77
2023/05/12 11:42:13;;;;;;;6.10;5.05;;;17.60;99.90;;;;;;5017480;28;20051;-76
2023/05/12 11:44:47;;;;;;;7.50;4.68;;;17.70;99.90;;;;;;4998956;28;20050;-76
2023/05/12 11:47:15;;;;;;;7.65;4.88;;;17.80;99.90;;;;;;4996673;28;20042;-76
2023/05/12 11:49:49;;;;;;;7.82;4.80;;;17.80;99.90;;;;;;4997681;28;20062;-76
2023/05/12 11:52:18;;;;;;;7.63;4.35;;;17.80;99.90;;;;;;4991380;28;20512;-76
2023/05/12 11:54:56;;;;;;;5.63;4.60;;;17.70;99.90;;;;;;4992194;28;20085;-80
2023/05/12 11:57:31;;;;;;;6.10;4.30;;;17.70;99.90;;;;;;5002458;28;20081;-77
2023/05/12 12:00:03;;;;;;;7.50;4.43;;;17.70;99.90;;;;;;4995692;28;20510;-77
2023/05/12 12:02:31;;;;;;;8.35;4.40;;;17.80;99.90;;;;;;5001062;28;20060;-77
2023/05/12 12:04:58;;;;;;;5.07;3.83;;;17.90;99.90;;;;;;5002300;28;20050;-77
2023/05/12 12:07:33;;;;;;;4.18;3.55;;;18.00;99.90;;;;;;5002711;28;20476;-77
2023/05/12 12:10:11;;;;;;;6.07;3.60;;;18.10;99.90;;;;;;4994292;28;20057;-76
2023/05/12 12:12:39;;;;;;;4.95;3.20;;;18.20;99.90;;;;;;4995247;28;20113;-76
2023/05/12 12:15:06;;;;;;;4.60;2.95;;;18.30;99.90;;;;;;4999148;28;20054;-77
2023/05/12 12:17:33;;;;;;;4.13;3.05;;;18.20;99.90;;;;;;4997115;28;20053;-77
2023/05/12 12:20:00;;;;;;;2.97;2.50;;;18.30;99.90;;;;;;5005262;28;20125;-77
2023/05/12 12:22:31;;;;;;;4.50;3.10;;;18.30;99.90;;;;;;5006941;28;20052;-77
2023/05/12 12:24:58;;;;;;;3.03;2.67;;;18.40;99.90;;;;;;5000003;28;20050;-77
2023/05/12 12:27:24;;;;;;;3.08;2.20;;;18.50;99.90;;;;;;4999955;28;20053;-77
2023/05/12 12:29:51;;;;;;;3.13;2.38;;;18.50;99.90;;;;;;4997782;28;20062;-77
2023/05/12 12:32:18;;;;;;;3.50;2.45;;;18.50;99.90;;;;;;4996902;28;20506;-77
2023/05/12 12:34:45;;;;;;;3.55;2.40;;;18.50;99.90;;;;;;5007782;28;20096;-76
2023/05/12 12:37:12;;;;;;;3.13;2.45;;;18.50;99.90;;;;;;5006117;28;20077;-76
2023/05/12 12:39:38;;;;;;;3.08;2.30;;;18.60;99.90;;;;;;5000275;28;20128;-76
2023/05/12 12:42:05;;;;;;;2.90;2.25;;;18.70;99.90;;;;;;5001293;28;20042;-76
2023/05/12 12:44:32;;;;;;;3.72;2.45;;;18.70;99.90;;;;;;4996534;28;20446;-77
2023/05/12 12:46:59;;;;;;;7.60;2.40;;;18.50;99.90;;;;;;4994487;28;20436;-77
2023/05/12 12:49:25;;;;;;;3.20;2.75;;;18.50;99.90;;;;;;5005593;28;20096;-77